WetterOnline ( http://www.wetteronline.de )

Wetter aktuell Drogen

Aktuelles Wetter: Osterfeld (246m)

6-stündlich | Neueste Meldungen
Ortszeit Temperatur Wetter
Do, 21.06. 14:00 -° C bedeckt
Do, 21.06. 8:00 22.1° C wolkenlos
Do, 21.06. 2:00 18.8° C wolkenlos
Mi, 20.06. 20:00 28.2° C wolkig
Mi, 20.06. 14:00 26.2° C leicht bewölkt
Mi, 20.06. 8:00 18.6° C bewölkt
Mi, 20.06. 2:00 15.0° C wolkig
Di, 19.06. 20:00 22.4° C bewölkt
Ortszeit Temperatur Wetter
Do, 21.06. 18:00 19.7° C wolkig
Do, 21.06. 17:50 19.7° C wolkig
Do, 21.06. 17:40 18.9° C wolkig
Do, 21.06. 17:30 19.6° C wolkig
Do, 21.06. 17:20 19.6° C wolkig
Do, 21.06. 17:10 18.8° C wolkig
Do, 21.06. 17:00 18.9° C wolkig
Do, 21.06. 16:30 17.6° C bewölkt
Do, 21.06. 16:00 17.7° C bewölkt
Do, 21.06. 15:30 15.1° C Sprühregen
Do, 21.06. 15:00 16.8° C Sprühregen
Ortszeit Relative Feuchte Sichtweite
Do, 21.06. 14:00 - 11 km
Do, 21.06. 8:00 62% 11 km
Do, 21.06. 2:00 74% 11 km
Mi, 20.06. 20:00 42% 11 km
Mi, 20.06. 14:00 46% 11 km
Mi, 20.06. 8:00 77% 11 km
Mi, 20.06. 2:00 88% 11 km
Di, 19.06. 20:00 58% 11 km
Ortszeit Relative Feuchte Sichtweite
Do, 21.06. 18:00 42% 11 km
Do, 21.06. 17:50 42% -
Do, 21.06. 17:40 41% -
Do, 21.06. 17:30 46% 11 km
Do, 21.06. 17:20 46% -
Do, 21.06. 17:10 49% -
Do, 21.06. 17:00 53% 11 km
Do, 21.06. 16:30 80% 11 km
Do, 21.06. 16:00 78% 11 km
Do, 21.06. 15:30 91% 11 km
Do, 21.06. 15:00 74% 11 km
Ortszeit Niederschlagsmenge Niederschlagsart
Do, 21.06. 14:00 0.1 l/m2 in 6 Std. -
Do, 21.06. 8:00 0.0 l/m2 in 12 Std. -
Do, 21.06. 2:00 0.0 l/m2 in 6 Std. -
Mi, 20.06. 20:00 0.0 l/m2 in 12 Std. -
Mi, 20.06. 14:00 0.0 l/m2 in 6 Std. -
Mi, 20.06. 8:00 0.0 l/m2 in 12 Std. -
Mi, 20.06. 2:00 0.0 l/m2 in 6 Std. -
Di, 19.06. 20:00 0.0 l/m2 in 12 Std. -
Ortszeit Niederschlagsmenge Niederschlagsart
Do, 21.06. 18:00 0.0 l/m2 in 1 Std. -
Do, 21.06. 17:50 keine Meldung -
Do, 21.06. 17:40 keine Meldung -
Do, 21.06. 17:30 0.0 l/m2 in 1 Std. -
Do, 21.06. 17:20 keine Meldung -
Do, 21.06. 17:10 keine Meldung -
Do, 21.06. 17:00 0.0 l/m2 in 1 Std. Regen
Do, 21.06. 16:30 0.0 l/m2 in 1 Std. -
Do, 21.06. 16:00 0.9 l/m2 in 1 Std. Regen
Do, 21.06. 15:30 0.9 l/m2 in 1 Std. -
Do, 21.06. 15:00 0.1 l/m2 in 1 Std. Sprühregen
Ortszeit Stärke Spitze Richtung
km/h Bft. km/h Grad Sektor
Do, 21.06. 14:00 50 7 68 310° NW
Do, 21.06. 8:00 4 1 14 220° SW
Do, 21.06. 2:00 4 1 14 170° S
Mi, 20.06. 20:00 9 2 20 310° NW
Mi, 20.06. 14:00 7 2 22 180° S
Mi, 20.06. 8:00 2 1 6 180° S
Mi, 20.06. 2:00 2 1 24 180° S
Di, 19.06. 20:00 18 3 32 300° NW
Ortszeit Stärke Spitze Richtung
km/h Bft. km/h Grad Sektor
Do, 21.06. 18:00 30 5 48 300° NW
Do, 21.06. 17:50 30 5 - 300° NW
Do, 21.06. 17:40 33 5 - 310° NW
Do, 21.06. 17:30 32 5 47 300° NW
Do, 21.06. 17:20 32 5 - 300° NW
Do, 21.06. 17:10 31 5 - 310° NW
Do, 21.06. 17:00 30 5 48 310° NW
Do, 21.06. 16:30 7 2 25 220° SW
Do, 21.06. 16:00 13 3 37 260° W
Do, 21.06. 15:30 17 3 37 280° W
Do, 21.06. 15:00 30 5 56 290° W
Ortszeit Untergrenze Bedeckung Gattung
total tief tief mittel hoch
Do, 21.06. 14:00 990 m 8/8 8/8 - - -
Do, 21.06. 8:00 - 0/8 0/8 - - -
Do, 21.06. 2:00 - 0/8 0/8 - - -
Mi, 20.06. 20:00 2100 m 5/8 5/8 - - -
Mi, 20.06. 14:00 1500 m 4/8 4/8 - - -
Mi, 20.06. 8:00 1500 m 7/8 7/8 - - -
Mi, 20.06. 2:00 8100 m 7/8 0/8 - - -
Di, 19.06. 20:00 1800 m 7/8 7/8 - - -
Ortszeit Bedeckungsgrad in Achtel und Wolkenuntergrenze
Do, 21.06. 18:00 2(1800m) 5(4800m) 7(8400m)
Do, 21.06. 17:50 2(1800m) 5(4800m) 7(8400m)
Do, 21.06. 17:40 1(1500m) 6(4800m) 8(8400m)
Do, 21.06. 17:30 1(1500m) 8(4800m)
Do, 21.06. 17:20 1(1500m) 8(4800m)
Do, 21.06. 17:10 2(1500m) 5(4500m) 7(5100m)
Do, 21.06. 17:00 5(1500m) 7(5100m) 7(5100m)
Do, 21.06. 16:30 7(1800m)
Do, 21.06. 16:00 2(390m) 6(2100m) 7(3000m)
Do, 21.06. 15:30 3(540m) 5(1500m) 7(1800m)
Do, 21.06. 15:00 4(630m) 5(810m) 8(1290m)
Ortszeit Luftdruck NN (hPa) Tendenz (hPa in 3 Std.)
Do, 21.06. 14:00 1013 + 2,7
Do, 21.06. 8:00 1012 - 1,8
Do, 21.06. 2:00 1016 - 1,0
Mi, 20.06. 20:00 1016 - 1,6
Mi, 20.06. 14:00 1020 - 1,9
Mi, 20.06. 8:00 1023 - 0,2
Mi, 20.06. 2:00 1024 + 0,5
Di, 19.06. 20:00 1023 + 0,1
Ortszeit Luftdruck NN (hPa) Tendenz (hPa in 3 Std.)
Do, 21.06. 18:00 1015 + 0,7
Do, 21.06. 17:50 1015 keine Meldung
Do, 21.06. 17:40 1015 keine Meldung
Do, 21.06. 17:30 1015 + 0,9
Do, 21.06. 17:20 1015 keine Meldung
Do, 21.06. 17:10 1015 keine Meldung
Do, 21.06. 17:00 1015 + 1,3
Do, 21.06. 16:30 1014 + 2,6
Do, 21.06. 16:00 1014 + 3,2
Do, 21.06. 15:30 1015 + 3,5
Do, 21.06. 15:00 1014 + 3,5
Ortszeit Schneehöhe (cm)
Do, 21.06. 14:00 -
Do, 21.06. 8:00 -
Do, 21.06. 2:00 -
Mi, 20.06. 20:00 -
Mi, 20.06. 14:00 -
Mi, 20.06. 8:00 -
Mi, 20.06. 2:00 -
Di, 19.06. 20:00 -
Ortszeit Schneehöhe (cm)
Do, 21.06. 18:00 -
Do, 21.06. 17:50 -
Do, 21.06. 17:40 -
Do, 21.06. 17:30 -
Do, 21.06. 17:20 -
Do, 21.06. 17:10 -
Do, 21.06. 17:00 -
Do, 21.06. 16:30 -
Do, 21.06. 16:00 -
Do, 21.06. 15:30 -
Do, 21.06. 15:00 -
Link zu dieser Seite / Seite empfehlen

Das Wetter in ...